Ruby Corner, New York
Current Conditions -  °F | °C
As of 5:58 AM on Friday 28 Nov 2014 (Local Time) from KGTB Reporting Station
Scattered Clouds Scattered Clouds  
Wind Chill: 17°   Ceiling: Unl
Heat Index: 17°   Visibility: 10mi
Dew Point: 16°   Wind: 3mph
Humidity: 94%   Direction: 250°WSW
Pressure: 30.1"   Gusts: NA
Location:  44.435°N, 75.6656°W
Report Text: KGTB 281058Z AUTO 25003KT 10SM SCT110 M08/M09 A3010 RMK AO2 SLP205 T10831091
Loading
Personal Weather Stations






























Interactive Weather Map New forecast layout! Learn more

10-Day Weather Forecast

Advertisements
Track Severe Weather on mobile